createdAt,value
2022-10-09T00:00:42.511Z,99275.06
2022-10-09T00:01:44.290Z,99277.69
2022-10-09T00:02:45.960Z,99283.38
2022-10-09T00:03:49.338Z,99281.41
2022-10-09T00:04:50.828Z,99281.84
2022-10-09T00:05:52.645Z,99275.69
2022-10-09T00:06:54.085Z,99278.47
2022-10-09T00:07:55.597Z,99286.19
2022-10-09T00:08:57.512Z,99280.16
2022-10-09T00:09:58.925Z,99280.50
2022-10-09T00:11:00.706Z,99279.41
2022-10-09T00:12:02.169Z,99276.78
2022-10-09T00:13:03.593Z,99276.63
2022-10-09T00:14:05.429Z,99277.41
2022-10-09T00:15:07.405Z,99272.94
2022-10-09T00:16:11.753Z,99276.00
2022-10-09T00:17:13.162Z,99275.25
2022-10-09T00:18:18.020Z,99277.53
2022-10-09T00:19:19.456Z,99274.91
2022-10-09T00:20:20.898Z,99276.78
2022-10-09T00:21:22.707Z,99274.16
2022-10-09T00:22:24.524Z,99269.97
2022-10-09T00:23:26.314Z,99277.09
2022-10-09T00:24:27.747Z,99269.22
2022-10-09T00:25:29.196Z,99271.38
2022-10-09T00:26:31.432Z,99269.22
2022-10-09T00:27:32.965Z,99272.59
2022-10-09T00:28:38.345Z,99271.06
2022-10-09T00:29:40.221Z,99274.31
2022-10-09T00:30:42.136Z,99275.06
2022-10-09T00:31:43.612Z,99271.22
2022-10-09T00:32:45.211Z,99270.91
2022-10-09T00:33:47.075Z,99279.41
2022-10-09T00:34:48.551Z,99272.63
2022-10-09T00:35:50.683Z,99276.78
2022-10-09T00:36:52.147Z,99267.53
2022-10-09T00:37:53.590Z,99266.28
2022-10-09T00:38:55.729Z,99267.53
2022-10-09T00:39:57.323Z,99270.75
2022-10-09T00:40:58.848Z,99274.78
2022-10-09T00:42:01.104Z,99268.13
2022-10-09T00:43:03.020Z,99261.66
2022-10-09T00:44:42.996Z,99270.00
2022-10-09T00:45:50.339Z,99268.16
2022-10-09T00:46:52.430Z,99271.06
2022-10-09T00:48:01.662Z,99269.69
2022-10-09T00:49:11.100Z,99272.94
2022-10-09T00:50:15.746Z,99268.59
2022-10-09T00:51:17.206Z,99270.63
2022-10-09T00:52:20.033Z,99266.16
2022-10-09T00:53:23.963Z,99265.81
2022-10-09T00:54:29.344Z,99263.97
2022-10-09T00:55:34.780Z,99264.75
2022-10-09T00:56:36.161Z,99259.19
2022-10-09T00:57:39.855Z,99263.19
2022-10-09T00:58:41.315Z,99256.25
2022-10-09T00:59:42.893Z,99258.28
2022-10-09T01:00:44.730Z,99256.72
2022-10-09T01:01:46.481Z,99259.34
2022-10-09T01:02:48.323Z,99261.97
2022-10-09T01:03:50.192Z,99259.66
2022-10-09T01:04:51.601Z,99253.16
2022-10-09T01:05:56.349Z,99264.44
2022-10-09T01:07:06.919Z,99258.75
2022-10-09T01:08:16.576Z,99257.03
2022-10-09T01:09:21.179Z,99257.50
2022-10-09T01:10:46.345Z,99256.56
2022-10-09T01:12:18.744Z,99258.09
2022-10-09T01:13:26.125Z,99255.47
2022-10-09T01:14:39.238Z,99260.72
2022-10-09T01:15:54.874Z,99256.72
2022-10-09T01:17:05.456Z,99251.31
2022-10-09T01:18:38.820Z,99253.16
2022-10-09T01:20:11.143Z,99251.03
2022-10-09T01:21:20.112Z,99256.28
2022-10-09T01:22:30.267Z,99254.25
2022-10-09T01:23:43.518Z,99250.53
2022-10-09T01:25:10.321Z,99251.31
2022-10-09T01:26:40.623Z,99252.88
2022-10-09T01:27:42.273Z,99255.19
2022-10-09T01:28:49.071Z,99241.59
2022-10-09T01:30:01.822Z,99250.84
2022-10-09T01:31:06.288Z,99248.06
2022-10-09T01:32:11.613Z,99251.16
2022-10-09T01:33:14.992Z,99242.81
2022-10-09T01:34:19.375Z,99247.00
2022-10-09T01:35:21.908Z,99243.44
2022-10-09T01:36:25.095Z,99246.53
2022-10-09T01:37:29.652Z,99247.59
2022-10-09T01:38:32.987Z,99243.28
2022-10-09T01:39:35.550Z,99235.72
2022-10-09T01:40:37.259Z,99248.06
2022-10-09T01:41:39.020Z,99243.72
2022-10-09T01:42:40.737Z,99239.72
2022-10-09T01:43:42.217Z,99237.84
2022-10-09T01:44:43.650Z,99241.56
2022-10-09T01:45:47.789Z,99242.66
2022-10-09T01:46:49.656Z,99239.25
2022-10-09T01:47:51.151Z,99240.94
2022-10-09T01:49:07.986Z,99241.72
2022-10-09T01:50:20.134Z,99233.84
2022-10-09T01:51:25.876Z,99237.56
2022-10-09T01:52:47.707Z,99234.75
2022-10-09T01:53:54.222Z,99225.94
2022-10-09T01:55:06.305Z,99226.59
2022-10-09T01:56:12.572Z,99229.81
2022-10-09T01:57:18.728Z,99231.69
2022-10-09T01:58:37.710Z,99233.81
2022-10-09T01:59:44.277Z,99235.06
2022-10-09T02:00:54.492Z,99228.75
2022-10-09T02:01:59.151Z,99223.50
2022-10-09T02:03:02.752Z,99230.91
2022-10-09T02:04:08.590Z,99220.72
2022-10-09T02:05:17.554Z,99223.97
2022-10-09T02:06:20.123Z,99219.63
2022-10-09T02:07:24.397Z,99228.09
2022-10-09T02:08:26.042Z,99221.31
2022-10-09T02:09:29.196Z,99217.75
2022-10-09T02:10:32.026Z,99216.66
2022-10-09T02:11:37.724Z,99214.19
2022-10-09T02:12:43.634Z,99217.59
2022-10-09T02:13:49.482Z,99211.56
2022-10-09T02:14:51.006Z,99215.44
2022-10-09T02:16:04.312Z,99213.09
2022-10-09T02:17:15.236Z,99218.34
2022-10-09T02:18:25.557Z,99220.97
2022-10-09T02:19:35.625Z,99220.84
2022-10-09T02:20:42.305Z,99218.66
2022-10-09T02:21:56.577Z,99220.03
2022-10-09T02:23:00.753Z,99212.47
2022-10-09T02:24:04.201Z,99207.84
2022-10-09T02:25:07.039Z,99215.25
2022-10-09T02:26:10.031Z,99210.31
2022-10-09T02:27:12.555Z,99212.00
2022-10-09T02:28:14.084Z,99217.56
2022-10-09T02:29:15.881Z,99212.44
2022-10-09T02:30:17.943Z,99212.16
2022-10-09T02:31:28.444Z,99209.97
2022-10-09T02:32:30.346Z,99217.25
2022-10-09T02:33:33.685Z,99208.28
2022-10-09T02:34:35.213Z,99206.75
2022-10-09T02:35:38.270Z,99212.16
2022-10-09T02:36:40.473Z,99199.31
2022-10-09T02:37:42.256Z,99208.25
2022-10-09T02:38:43.695Z,99216.63
2022-10-09T02:39:45.204Z,99212.16
2022-10-09T02:40:46.619Z,99209.03
2022-10-09T02:41:48.058Z,99215.22
2022-10-09T02:42:50.145Z,99216.31
2022-10-09T02:43:51.819Z,99214.75
2022-10-09T02:44:53.260Z,99215.22
2022-10-09T02:45:55.046Z,99217.06
2022-10-09T02:46:56.510Z,99218.59
2022-10-09T02:47:57.923Z,99212.91
2022-10-09T02:48:59.366Z,99211.97
2022-10-09T02:50:00.808Z,99209.34
2022-10-09T02:51:02.246Z,99212.44
2022-10-09T02:52:04.023Z,99210.88
2022-10-09T02:53:05.504Z,99210.59
2022-10-09T02:54:07.046Z,99218.47
2022-10-09T02:55:08.607Z,99210.88
2022-10-09T02:56:10.265Z,99211.97
2022-10-09T02:57:11.806Z,99214.38
2022-10-09T02:58:13.385Z,99215.91
2022-10-09T02:59:14.925Z,99210.34
2022-10-09T03:00:16.463Z,99205.25
2022-10-09T03:01:18.618Z,99209.41
2022-10-09T03:02:20.545Z,99210.97
2022-10-09T03:03:22.228Z,99208.81
2022-10-09T03:04:23.671Z,99208.50
2022-10-09T03:05:25.279Z,99217.91
2022-10-09T03:06:28.295Z,99218.22
2022-10-09T03:07:30.071Z,99222.22
2022-10-09T03:08:31.925Z,99217.56
2022-10-09T03:09:33.946Z,99211.25
2022-10-09T03:10:38.956Z,99215.91
2022-10-09T03:11:42.492Z,99219.13
2022-10-09T03:12:44.002Z,99219.44
2022-10-09T03:13:46.018Z,99219.56
2022-10-09T03:14:47.585Z,99221.41
2022-10-09T03:15:49.152Z,99223.72
2022-10-09T03:16:50.690Z,99223.41
2022-10-09T03:17:52.213Z,99223.13
2022-10-09T03:18:54.649Z,99219.44
2022-10-09T03:19:56.084Z,99223.91
2022-10-09T03:20:57.796Z,99224.34
2022-10-09T03:21:59.564Z,99222.34
2022-10-09T03:23:01.024Z,99229.41
2022-10-09T03:24:02.451Z,99221.88
2022-10-09T03:25:04.171Z,99217.22
2022-10-09T03:26:08.672Z,99226.16
2022-10-09T03:27:10.429Z,99221.53
2022-10-09T03:28:11.934Z,99220.78
2022-10-09T03:29:13.382Z,99220.47
2022-10-09T03:30:15.029Z,99225.53
2022-10-09T03:31:46.511Z,99234.47
2022-10-09T03:32:40.637Z,99227.97
2022-10-09T03:33:42.445Z,99223.81
2022-10-09T03:34:43.849Z,99223.13
2022-10-09T03:35:47.111Z,99217.41
2022-10-09T03:36:48.561Z,99218.66
2022-10-09T03:37:49.992Z,99224.97
2022-10-09T03:38:51.460Z,99217.91
2022-10-09T03:39:52.910Z,99229.13
2022-10-09T03:40:54.645Z,99223.31
2022-10-09T03:41:56.587Z,99219.34
2022-10-09T03:42:58.178Z,99226.59
2022-10-09T03:43:59.626Z,99227.19
2022-10-09T03:45:04.463Z,99223.13
2022-10-09T03:46:07.928Z,99229.28
2022-10-09T03:47:09.475Z,99228.91
2022-10-09T03:48:12.492Z,99229.41
2022-10-09T03:49:14.001Z,99237.25
2022-10-09T03:50:15.438Z,99229.84
2022-10-09T03:51:16.876Z,99233.56
2022-10-09T03:52:18.587Z,99223.56
2022-10-09T03:53:20.017Z,99226.78
2022-10-09T03:54:21.438Z,99225.25
2022-10-09T03:55:22.880Z,99228.25
2022-10-09T03:56:24.323Z,99232.72
2022-10-09T03:57:26.133Z,99223.78
2022-10-09T03:58:27.644Z,99225.38
2022-10-09T03:59:29.049Z,99227.19
2022-10-09T04:00:30.725Z,99228.56
2022-10-09T04:01:32.753Z,99227.31
2022-10-09T04:02:34.986Z,99227.03
2022-10-09T04:03:36.517Z,99224.41
2022-10-09T04:04:37.962Z,99221.16
2022-10-09T04:05:39.428Z,99218.28
2022-10-09T04:06:41.557Z,99220.91
2022-10-09T04:07:43.034Z,99215.66
2022-10-09T04:08:44.468Z,99223.38
2022-10-09T04:09:45.927Z,99213.69
2022-10-09T04:10:47.358Z,99218.91
2022-10-09T04:11:49.109Z,99217.06
2022-10-09T04:12:50.825Z,99222.31
2022-10-09T04:13:52.592Z,99211.78
2022-10-09T04:14:54.036Z,99217.78
2022-10-09T04:15:56.517Z,99221.47
2022-10-09T04:16:58.081Z,99221.16
2022-10-09T04:17:59.561Z,99217.13
2022-10-09T04:19:01.059Z,99221.28
2022-10-09T04:20:02.953Z,99229.34
2022-10-09T04:21:04.381Z,99218.09
2022-10-09T04:22:06.160Z,99220.84
2022-10-09T04:23:07.930Z,99218.81
2022-10-09T04:24:09.379Z,99223.09
2022-10-09T04:25:10.893Z,99219.69
2022-10-09T04:26:13.434Z,99216.94
2022-10-09T04:27:14.955Z,99225.81
2022-10-09T04:28:16.453Z,99217.50
2022-10-09T04:29:17.915Z,99223.31
2022-10-09T04:30:19.385Z,99225.47
2022-10-09T04:31:21.406Z,99230.41
2022-10-09T04:32:24.109Z,99222.09
2022-10-09T04:33:26.929Z,99224.22
2022-10-09T04:34:28.442Z,99219.41
2022-10-09T04:35:29.965Z,99223.88
2022-10-09T04:36:31.984Z,99217.09
2022-10-09T04:37:33.451Z,99222.59
2022-10-09T04:38:34.894Z,99215.25
2022-10-09T04:39:36.351Z,99224.44
2022-10-09T04:40:38.190Z,99220.75
2022-10-09T04:41:39.944Z,99222.03
2022-10-09T04:42:41.432Z,99218.81
2022-10-09T04:43:42.861Z,99219.28
2022-10-09T04:44:44.280Z,99216.38
2022-10-09T04:45:46.002Z,99217.63
2022-10-09T04:46:50.784Z,99217.13
2022-10-09T04:47:52.976Z,99213.16
2022-10-09T04:48:54.569Z,99223.31
2022-10-09T04:49:56.009Z,99216.75
2022-10-09T04:50:58.143Z,99224.59
2022-10-09T04:51:59.591Z,99215.47
2022-10-09T04:53:01.055Z,99222.88
2022-10-09T04:54:02.487Z,99219.63
2022-10-09T04:55:04.166Z,99223.75
2022-10-09T04:56:09.054Z,99222.78
2022-10-09T04:57:10.495Z,99212.56
2022-10-09T04:58:12.753Z,99218.25
2022-10-09T04:59:14.197Z,99219.03
2022-10-09T05:00:15.964Z,99220.09
2022-10-09T05:01:22.322Z,99220.41
2022-10-09T05:02:23.890Z,99223.03
2022-10-09T05:03:25.404Z,99225.94
2022-10-09T05:04:26.847Z,99220.72
2022-10-09T05:05:28.282Z,99224.09
2022-10-09T05:06:29.872Z,99220.22
2022-10-09T05:07:31.559Z,99224.69
2022-10-09T05:08:33.052Z,99224.22
2022-10-09T05:09:35.913Z,99221.41
2022-10-09T05:10:37.341Z,99224.50
2022-10-09T05:11:42.467Z,99221.28
2022-10-09T05:12:44.303Z,99219.00
2022-10-09T05:13:49.316Z,99220.81
2022-10-09T05:14:50.761Z,99226.34
2022-10-09T05:15:52.599Z,99222.66
2022-10-09T05:17:13.010Z,99218.31
2022-10-09T05:18:15.397Z,99224.31
2022-10-09T05:19:16.832Z,99219.69
2022-10-09T05:20:18.339Z,99224.91
2022-10-09T05:21:20.758Z,99219.97
2022-10-09T05:22:22.235Z,99223.66
2022-10-09T05:23:23.756Z,99223.38
2022-10-09T05:24:25.288Z,99227.22
2022-10-09T05:25:26.760Z,99229.06
2022-10-09T05:26:29.023Z,99223.06
2022-10-09T05:27:30.463Z,99225.88
2022-10-09T05:28:32.658Z,99234.50
2022-10-09T05:29:34.205Z,99233.72
2022-10-09T05:30:40.353Z,99241.06
2022-10-09T05:31:46.948Z,99232.16
2022-10-09T05:32:50.876Z,99234.00
2022-10-09T05:33:53.543Z,99240.00
2022-10-09T05:34:54.960Z,99238.75
2022-10-09T05:36:00.871Z,99234.88
2022-10-09T05:37:02.412Z,99240.59
2022-10-09T05:38:03.849Z,99240.41
2022-10-09T05:39:05.451Z,99239.06
2022-10-09T05:40:07.714Z,99248.25
2022-10-09T05:41:13.428Z,99249.34
2022-10-09T05:42:15.010Z,99240.59
2022-10-09T05:43:16.440Z,99251.34
2022-10-09T05:44:17.884Z,99252.53
2022-10-09T05:45:19.328Z,99253.91
2022-10-09T05:46:25.007Z,99247.97
2022-10-09T05:47:26.440Z,99245.38
2022-10-09T05:48:27.953Z,99246.44
2022-10-09T05:49:29.488Z,99243.66
2022-10-09T05:50:31.237Z,99251.50
2022-10-09T05:51:37.876Z,99247.03
2022-10-09T05:52:40.064Z,99253.31
2022-10-09T05:53:43.900Z,99248.59
2022-10-09T05:54:45.427Z,99249.06
2022-10-09T05:55:47.180Z,99249.34
2022-10-09T05:56:48.789Z,99250.13
2022-10-09T05:57:50.780Z,99249.81
2022-10-09T05:58:57.728Z,99246.16
2022-10-09T05:59:59.153Z,99251.66
2022-10-09T06:01:01.146Z,99247.22
2022-10-09T06:02:03.200Z,99248.94
2022-10-09T06:03:04.644Z,99248.38
2022-10-09T06:04:10.925Z,99254.56
2022-10-09T06:05:12.734Z,99247.78
2022-10-09T06:06:14.151Z,99258.16
2022-10-09T06:07:15.693Z,99248.16
2022-10-09T06:08:17.125Z,99253.94
2022-10-09T06:09:25.332Z,99244.09
2022-10-09T06:10:31.450Z,99244.69
2022-10-09T06:11:36.436Z,99246.06
2022-10-09T06:12:38.050Z,99246.22
2022-10-09T06:13:40.408Z,99251.06
2022-10-09T06:14:42.100Z,99250.38
2022-10-09T06:15:54.346Z,99246.28
2022-10-09T06:16:55.927Z,99248.00
2022-10-09T06:17:57.456Z,99249.16
2022-10-09T06:18:59.701Z,99240.41
2022-10-09T06:20:01.190Z,99243.50
2022-10-09T06:21:04.363Z,99243.38
2022-10-09T06:22:06.011Z,99244.16
2022-10-09T06:23:07.452Z,99249.88
2022-10-09T06:24:28.354Z,99244.63
2022-10-09T06:25:31.185Z,99250.09
2022-10-09T06:26:33.145Z,99245.16
2022-10-09T06:27:34.589Z,99245.75
2022-10-09T06:28:36.794Z,99245.47
2022-10-09T06:29:38.365Z,99252.22
2022-10-09T06:30:39.902Z,99242.53
2022-10-09T06:31:41.517Z,99250.38
2022-10-09T06:32:42.958Z,99249.50
2022-10-09T06:33:46.123Z,99249.22
2022-10-09T06:34:47.981Z,99252.59
2022-10-09T06:35:49.437Z,99247.38
2022-10-09T06:36:50.957Z,99244.75
2022-10-09T06:37:52.395Z,99250.63
2022-10-09T06:38:54.051Z,99250.03
2022-10-09T06:39:55.524Z,99256.22
2022-10-09T06:41:05.297Z,99256.72
2022-10-09T06:42:06.729Z,99260.28
2022-10-09T06:43:08.176Z,99257.66
2022-10-09T06:44:16.719Z,99253.97
2022-10-09T06:45:18.876Z,99256.59
2022-10-09T06:46:22.748Z,99253.09
2022-10-09T06:47:24.379Z,99251.69
2022-10-09T06:48:25.932Z,99258.66
2022-10-09T06:49:27.534Z,99253.28
2022-10-09T06:50:29.112Z,99256.88
2022-10-09T06:51:31.299Z,99258.34
2022-10-09T06:52:32.744Z,99252.19
2022-10-09T06:53:36.264Z,99249.28
2022-10-09T06:54:38.041Z,99257.59
2022-10-09T06:55:39.463Z,99258.22
2022-10-09T06:56:41.509Z,99253.66
2022-10-09T06:57:42.908Z,99254.91
2022-10-09T06:58:45.266Z,99259.53
2022-10-09T06:59:50.432Z,99256.59
2022-10-09T07:01:03.830Z,99254.94
2022-10-09T07:02:05.411Z,99250.16
2022-10-09T07:03:07.108Z,99248.78
2022-10-09T07:04:14.025Z,99252.03
2022-10-09T07:05:15.800Z,99247.75
2022-10-09T07:06:19.773Z,99253.75
2022-10-09T07:07:21.198Z,99253.16
2022-10-09T07:08:22.736Z,99252.53
2022-10-09T07:09:24.225Z,99252.88
2022-10-09T07:10:25.673Z,99260.63
2022-10-09T07:11:30.525Z,99257.09
2022-10-09T07:12:35.117Z,99249.38
2022-10-09T07:13:36.879Z,99255.84
2022-10-09T07:14:38.319Z,99253.56
2022-10-09T07:15:46.075Z,99255.56
2022-10-09T07:16:48.960Z,99256.50
2022-10-09T07:17:50.443Z,99252.97
2022-10-09T07:18:52.712Z,99261.59
2022-10-09T07:19:54.586Z,99255.94
2022-10-09T07:20:56.265Z,99255.28
2022-10-09T07:21:57.733Z,99257.31
2022-10-09T07:22:59.210Z,99256.41
2022-10-09T07:24:01.892Z,99256.25
2022-10-09T07:25:04.014Z,99253.78
2022-10-09T07:26:26.551Z,99252.22
2022-10-09T07:27:28.217Z,99248.25
2022-10-09T07:28:30.512Z,99260.44
2022-10-09T07:29:32.095Z,99255.34
2022-10-09T07:30:37.973Z,99254.41
2022-10-09T07:31:39.485Z,99262.91
2022-10-09T07:32:40.941Z,99255.97
2022-10-09T07:33:42.824Z,99254.72
2022-10-09T07:34:44.582Z,99254.72
2022-10-09T07:35:59.976Z,99260.25
2022-10-09T07:37:01.430Z,99259.38
2022-10-09T07:38:03.685Z,99270.41
2022-10-09T07:39:05.699Z,99274.78
2022-10-09T07:40:07.739Z,99269.94
2022-10-09T07:41:12.453Z,99271.63
2022-10-09T07:42:13.921Z,99263.81
2022-10-09T07:43:16.023Z,99267.03
2022-10-09T07:44:18.200Z,99270.25
2022-10-09T07:45:19.614Z,99264.31
2022-10-09T07:46:24.919Z,99266.09
2022-10-09T07:47:27.665Z,99269.28
2022-10-09T07:48:29.669Z,99261.84
2022-10-09T07:49:31.495Z,99261.63
2022-10-09T07:50:32.929Z,99268.44
2022-10-09T07:51:34.508Z,99257.13
2022-10-09T07:52:35.943Z,99261.50
2022-10-09T07:53:38.548Z,99256.78
2022-10-09T07:54:40.424Z,99254.66
2022-10-09T07:55:49.007Z,99258.28
2022-10-09T07:56:50.537Z,99255.41
2022-10-09T07:57:52.005Z,99249.25
2022-10-09T07:58:55.514Z,99252.22
2022-10-09T07:59:57.312Z,99255.16
2022-10-09T08:01:08.478Z,99255.91
2022-10-09T08:02:10.082Z,99250.53
2022-10-09T08:03:11.705Z,99251.63
2022-10-09T08:04:13.400Z,99250.53
2022-10-09T08:05:14.982Z,99249.56
2022-10-09T08:06:18.091Z,99245.38
2022-10-09T08:07:19.621Z,99239.81
2022-10-09T08:08:21.102Z,99243.63
2022-10-09T08:09:22.893Z,99244.09
2022-10-09T08:10:24.759Z,99242.03
2022-10-09T08:11:27.945Z,99242.16
2022-10-09T08:12:29.383Z,99244.59
2022-10-09T08:13:30.823Z,99243.22
2022-10-09T08:14:32.407Z,99236.97
2022-10-09T08:15:33.867Z,99239.88
2022-10-09T08:16:35.401Z,99237.78
2022-10-09T08:17:36.912Z,99230.78
2022-10-09T08:18:40.328Z,99243.41
2022-10-09T08:19:42.211Z,99237.91
2022-10-09T08:20:43.709Z,99238.81
2022-10-09T08:21:45.152Z,99231.44
2022-10-09T08:22:46.928Z,99236.50
2022-10-09T08:23:54.405Z,99232.28
2022-10-09T08:24:55.798Z,99227.88
2022-10-09T08:25:57.326Z,99231.84
2022-10-09T08:26:59.019Z,99224.81
2022-10-09T08:28:00.414Z,99223.16
2022-10-09T08:29:04.895Z,99227.75
2022-10-09T08:30:06.966Z,99224.81
2022-10-09T08:31:16.252Z,99218.09
2022-10-09T08:32:17.903Z,99218.53
2022-10-09T08:33:21.908Z,99219.72
2022-10-09T08:34:23.339Z,99220.72
2022-10-09T08:35:24.945Z,99218.19
2022-10-09T08:36:27.078Z,99223.00
2022-10-09T08:37:28.507Z,99219.38
2022-10-09T08:38:46.590Z,99216.81
2022-10-09T08:39:48.482Z,99217.22
2022-10-09T08:41:06.107Z,99216.78
2022-10-09T08:42:35.464Z,99217.84
2022-10-09T08:43:41.819Z,99213.84
2022-10-09T08:44:49.002Z,99215.22
2022-10-09T08:45:51.537Z,99215.84
2022-10-09T08:47:22.166Z,99212.63
2022-10-09T08:48:26.677Z,99218.34
2022-10-09T08:49:37.839Z,99215.81
2022-10-09T08:50:44.796Z,99217.88
2022-10-09T08:51:46.376Z,99216.88
2022-10-09T08:53:13.436Z,99213.03
2022-10-09T08:54:32.430Z,99216.88
2022-10-09T08:55:59.391Z,99209.91
2022-10-09T08:57:04.375Z,99212.25
2022-10-09T08:58:06.899Z,99201.91
2022-10-09T08:59:12.103Z,99205.13
2022-10-09T09:00:19.022Z,99208.06
2022-10-09T09:01:29.572Z,99203.75
2022-10-09T09:02:41.382Z,99200.28
2022-10-09T09:04:13.358Z,99205.09
2022-10-09T09:05:23.026Z,99195.38
2022-10-09T09:06:47.484Z,99196.97
2022-10-09T09:07:55.068Z,99197.41
2022-10-09T09:09:19.549Z,99203.16
2022-10-09T09:10:41.389Z,99206.34
2022-10-09T09:12:05.843Z,99195.97
2022-10-09T09:13:19.211Z,99198.78
2022-10-09T09:14:48.725Z,99192.97
2022-10-09T09:15:58.500Z,99194.28
2022-10-09T09:17:15.777Z,99201.63
2022-10-09T09:18:17.187Z,99203.91
2022-10-09T09:19:39.101Z,99199.88
2022-10-09T09:20:55.009Z,99199.59
2022-10-09T09:21:59.075Z,99198.41
2022-10-09T09:23:01.736Z,99196.03
2022-10-09T09:24:13.109Z,99194.50
2022-10-09T09:25:20.271Z,99200.28
2022-10-09T09:26:23.269Z,99198.13
2022-10-09T09:27:33.105Z,99201.47
2022-10-09T09:28:35.398Z,99198.44
2022-10-09T09:29:43.135Z,99203.47
2022-10-09T09:30:50.514Z,99196.03
2022-10-09T09:32:01.022Z,99191.88
2022-10-09T09:33:11.469Z,99191.03
2022-10-09T09:34:35.112Z,99189.63
2022-10-09T09:35:48.839Z,99189.50
2022-10-09T09:36:57.064Z,99193.44
2022-10-09T09:37:58.721Z,99192.59
2022-10-09T09:40:45.892Z,99187.91
2022-10-09T09:41:47.178Z,99186.09
2022-10-09T09:42:49.093Z,99184.69
2022-10-09T09:43:50.791Z,99180.13
2022-10-09T09:45:07.728Z,99179.38
2022-10-09T09:46:16.271Z,99175.50
2022-10-09T09:47:30.026Z,99177.72
2022-10-09T09:48:36.730Z,99179.81
2022-10-09T09:49:38.207Z,99180.28
2022-10-09T09:50:50.561Z,99170.19
2022-10-09T09:52:02.096Z,99175.19
2022-10-09T09:53:29.342Z,99184.50
2022-10-09T09:54:30.994Z,99172.59
2022-10-09T09:55:34.320Z,99176.22
2022-10-09T09:57:11.162Z,99178.63
2022-10-09T09:58:08.139Z,99177.19
2022-10-09T09:59:48.094Z,99177.19
2022-10-09T10:01:04.026Z,99176.38
2022-10-09T10:02:08.505Z,99175.00
2022-10-09T10:03:13.351Z,99171.66
2022-10-09T10:04:20.540Z,99175.59
2022-10-09T10:05:24.996Z,99162.09
2022-10-09T10:06:35.351Z,99159.19
2022-10-09T10:07:38.754Z,99169.28
2022-10-09T10:08:40.539Z,99160.03
2022-10-09T10:09:42.116Z,99159.72
2022-10-09T10:10:47.968Z,99156.72
2022-10-09T10:11:58.724Z,99158.66
2022-10-09T10:13:01.436Z,99151.59
2022-10-09T10:14:08.615Z,99159.03
2022-10-09T10:15:26.485Z,99158.03
2022-10-09T10:16:30.387Z,99162.06
2022-10-09T10:17:37.754Z,99156.44
2022-10-09T10:18:42.451Z,99152.47
2022-10-09T10:19:50.782Z,99152.16
2022-10-09T10:21:03.477Z,99157.13
2022-10-09T10:22:07.830Z,99151.38
2022-10-09T10:23:29.960Z,99145.59
2022-10-09T10:24:46.935Z,99137.91
2022-10-09T10:25:50.522Z,99145.44
2022-10-09T10:27:18.576Z,99140.44
2022-10-09T10:28:27.723Z,99139.66
2022-10-09T10:29:37.703Z,99135.66
2022-10-09T10:30:40.212Z,99140.13
2022-10-09T10:32:04.485Z,99139.50
2022-10-09T10:33:19.203Z,99135.31
2022-10-09T10:34:28.105Z,99134.28
2022-10-09T10:35:35.796Z,99130.41
2022-10-09T10:36:37.268Z,99125.09
2022-10-09T10:37:57.352Z,99124.94
2022-10-09T10:39:07.841Z,99129.84
2022-10-09T10:40:32.924Z,99123.47
2022-10-09T10:41:45.458Z,99125.34
2022-10-09T10:43:25.580Z,99120.34
2022-10-09T10:44:38.163Z,99122.91
2022-10-09T10:45:59.413Z,99116.78
2022-10-09T10:47:04.148Z,99115.22
2022-10-09T10:48:11.044Z,99108.44
2022-10-09T10:49:15.548Z,99117.13
2022-10-09T10:50:19.326Z,99110.34
2022-10-09T10:51:35.841Z,99103.94
2022-10-09T10:52:46.195Z,99109.63
2022-10-09T10:54:02.788Z,99102.97
2022-10-09T10:55:29.556Z,99103.97
2022-10-09T10:56:37.512Z,99103.44
2022-10-09T10:57:41.999Z,99097.47
2022-10-09T10:59:14.070Z,99101.19
2022-10-09T11:00:17.281Z,99106.31
2022-10-09T11:01:52.284Z,99105.97
2022-10-09T11:03:15.310Z,99099.56
2022-10-09T11:04:37.147Z,99098.34
2022-10-09T11:06:07.080Z,99100.25
2022-10-09T11:07:31.454Z,99098.00
2022-10-09T11:08:56.425Z,99094.59
2022-10-09T11:10:06.588Z,99099.97
2022-10-09T11:11:33.790Z,99097.66
2022-10-09T11:12:51.797Z,99085.78
2022-10-09T11:14:03.954Z,99086.78
2022-10-09T11:15:47.245Z,99081.47
2022-10-09T11:17:02.154Z,99081.00
2022-10-09T11:18:31.133Z,99074.78
2022-10-09T11:19:51.675Z,99073.41
2022-10-09T11:21:18.443Z,99070.31
2022-10-09T11:22:32.093Z,99072.13
2022-10-09T11:23:33.506Z,99070.34
2022-10-09T11:24:47.285Z,99070.75
2022-10-09T11:26:41.314Z,99061.59
2022-10-09T11:27:53.588Z,99063.94
2022-10-09T11:29:10.307Z,99055.97
2022-10-09T11:30:15.011Z,99062.78
2022-10-09T11:31:20.126Z,99058.56
2022-10-09T11:32:29.514Z,99056.69
2022-10-09T11:34:04.299Z,99053.19
2022-10-09T11:35:15.425Z,99055.53
2022-10-09T11:36:27.335Z,99058.47
2022-10-09T11:37:35.096Z,99053.44
2022-10-09T11:38:44.738Z,99045.41
2022-10-09T11:39:46.587Z,99053.03
2022-10-09T11:40:48.376Z,99045.84
2022-10-09T11:41:52.847Z,99040.47
2022-10-09T11:43:30.949Z,99040.81
2022-10-09T11:45:00.958Z,99039.66
2022-10-09T11:46:15.502Z,99035.16
2022-10-09T11:47:49.883Z,99036.75
2022-10-09T11:49:08.013Z,99027.38
2022-10-09T11:50:36.705Z,99031.44
2022-10-09T11:51:47.017Z,99025.44
2022-10-09T11:53:13.261Z,99025.88
2022-10-09T11:54:18.794Z,99020.56
2022-10-09T11:55:31.820Z,99020.22
2022-10-09T11:56:33.852Z,99027.78
2022-10-09T11:57:35.477Z,99027.91
2022-10-09T11:58:36.952Z,99016.16
2022-10-09T11:59:42.708Z,99020.41
2022-10-09T12:00:45.994Z,99023.88
2022-10-09T12:01:47.715Z,99014.59
2022-10-09T12:02:58.105Z,99014.59
2022-10-09T12:04:27.788Z,99002.81
2022-10-09T12:05:43.799Z,99008.91
2022-10-09T12:06:51.750Z,99011.66
2022-10-09T12:07:53.284Z,99011.28
2022-10-09T12:08:58.558Z,99005.63
2022-10-09T12:10:09.483Z,99010.22
2022-10-09T12:11:14.865Z,99008.66
2022-10-09T12:12:16.260Z,99010.56
2022-10-09T12:13:42.727Z,99006.38
2022-10-09T12:14:48.599Z,99000.72
2022-10-09T12:15:50.075Z,98993.84
2022-10-09T12:16:51.671Z,98994.97
2022-10-09T12:17:53.518Z,98998.41
2022-10-09T12:18:56.680Z,98996.53
2022-10-09T12:20:17.148Z,99002.22
2022-10-09T12:21:23.933Z,98986.59
2022-10-09T12:22:30.697Z,98984.34
2022-10-09T12:23:36.205Z,98990.75
2022-10-09T12:24:40.504Z,98976.34
2022-10-09T12:25:45.483Z,98982.78
2022-10-09T12:26:48.469Z,98976.34
2022-10-09T12:27:54.284Z,98975.97
2022-10-09T12:29:00.238Z,98965.75
2022-10-09T12:30:11.463Z,98971.09
2022-10-09T12:31:22.198Z,98962.72
2022-10-09T12:32:29.331Z,98971.47
2022-10-09T12:33:40.237Z,98967.66
2022-10-09T12:34:47.929Z,98960.09
2022-10-09T12:36:00.996Z,98968.50
2022-10-09T12:37:22.758Z,98966.25
2022-10-09T12:38:29.782Z,98959.69
2022-10-09T12:39:34.098Z,98962.38
2022-10-09T12:40:35.632Z,98955.19
2022-10-09T12:41:37.283Z,98959.38
2022-10-09T12:42:39.093Z,98951.78
2022-10-09T12:43:45.462Z,98951.00
2022-10-09T12:44:50.138Z,98947.56
2022-10-09T12:45:53.753Z,98955.59
2022-10-09T12:46:58.859Z,98951.78
2022-10-09T12:48:10.163Z,98951.75
2022-10-09T12:49:20.090Z,98939.59
2022-10-09T12:50:34.953Z,98944.91
2022-10-09T12:51:36.346Z,98946.44
2022-10-09T12:52:52.844Z,98935.00
2022-10-09T12:53:55.500Z,98946.81
2022-10-09T12:54:57.075Z,98937.28
2022-10-09T12:56:00.799Z,98938.81
2022-10-09T12:57:02.395Z,98935.78
2022-10-09T12:58:08.462Z,98932.34